createdAt,value
2022-09-20T00:02:11.031Z,100986.76
2022-09-20T00:04:41.716Z,100993.57
2022-09-20T00:07:12.197Z,100993.88
2022-09-20T00:09:42.826Z,100996.84
2022-09-20T00:12:13.297Z,100998.27
2022-09-20T00:14:43.593Z,100998.97
2022-09-20T00:17:13.888Z,101000.41
2022-09-20T00:19:44.446Z,100995.16
2022-09-20T00:22:14.850Z,100996.42
2022-09-20T00:24:48.903Z,100998.02
2022-09-20T00:27:19.656Z,100997.15
2022-09-20T00:29:50.017Z,100995.05
2022-09-20T00:32:20.774Z,100999.84
2022-09-20T00:35:10.737Z,100997.60
2022-09-20T00:37:43.263Z,101000.02
2022-09-20T00:40:16.905Z,100999.69
2022-09-20T00:42:47.646Z,101002.52
2022-09-20T00:45:23.538Z,101005.02
2022-09-20T00:47:58.080Z,101004.70
2022-09-20T00:50:38.139Z,101007.69
2022-09-20T00:53:13.558Z,101004.42
2022-09-20T00:55:48.798Z,101003.64
2022-09-20T00:58:21.263Z,101008.45
2022-09-20T01:00:53.395Z,101007.11
2022-09-20T01:03:26.016Z,101002.58
2022-09-20T01:05:57.389Z,101001.91
2022-09-20T01:08:26.600Z,100999.16
2022-09-20T01:10:57.154Z,101002.23
2022-09-20T01:13:31.121Z,100996.40
2022-09-20T01:16:03.663Z,100998.11
2022-09-20T01:18:36.526Z,100998.44
2022-09-20T01:21:08.242Z,101003.20
2022-09-20T01:23:58.874Z,101009.33
2022-09-20T01:26:42.621Z,101007.97
2022-09-20T01:29:28.792Z,101010.42
2022-09-20T01:32:02.533Z,101011.21
2022-09-20T01:34:36.944Z,101014.96
2022-09-20T01:37:15.806Z,101011.06
2022-09-20T01:39:58.699Z,101008.41
2022-09-20T01:42:37.986Z,101008.23
2022-09-20T01:45:20.050Z,101007.89
2022-09-20T01:48:00.311Z,101005.20
2022-09-20T01:50:38.557Z,101004.38
2022-09-20T01:53:43.989Z,101000.63
2022-09-20T01:56:34.080Z,101009.85
2022-09-20T01:59:24.222Z,101010.59
2022-09-20T02:02:18.007Z,101009.70
2022-09-20T02:05:19.322Z,101009.55
2022-09-20T02:08:25.469Z,101009.94
2022-09-20T02:11:10.587Z,101008.56
2022-09-20T02:13:59.337Z,101006.09
2022-09-20T02:16:49.664Z,101010.27
2022-09-20T02:19:39.343Z,101008.33
2022-09-20T02:22:31.260Z,101007.43
2022-09-20T02:25:13.124Z,101007.05
2022-09-20T02:27:56.444Z,101006.14
2022-09-20T02:30:44.849Z,101001.92
2022-09-20T02:33:33.891Z,101000.01
2022-09-20T02:36:23.163Z,100998.79
2022-09-20T02:39:08.996Z,101000.23
2022-09-20T02:42:00.161Z,101005.41
2022-09-20T02:44:46.711Z,101006.50
2022-09-20T02:47:27.624Z,101003.96
2022-09-20T02:50:12.286Z,101005.33
2022-09-20T02:52:50.677Z,101004.20
2022-09-20T02:55:28.816Z,101003.44
2022-09-20T02:58:10.069Z,101004.09
2022-09-20T03:00:48.576Z,101008.07
2022-09-20T03:03:32.701Z,101012.05
2022-09-20T03:06:10.015Z,101015.30
2022-09-20T03:08:51.762Z,101015.05
2022-09-20T03:11:32.733Z,101020.24
2022-09-20T03:14:17.948Z,101019.26
2022-09-20T03:16:59.690Z,101023.21
2022-09-20T03:19:45.408Z,101028.56
2022-09-20T03:22:28.393Z,101027.73
2022-09-20T03:25:16.599Z,101029.06
2022-09-20T03:28:00.437Z,101033.92
2022-09-20T03:30:45.465Z,101030.66
2022-09-20T03:33:25.372Z,101032.69
2022-09-20T03:36:09.232Z,101030.21
2022-09-20T03:39:03.430Z,101032.09
2022-09-20T03:42:04.436Z,101032.90
2022-09-20T03:44:49.489Z,101035.64
2022-09-20T03:47:36.785Z,101034.19
2022-09-20T03:50:33.323Z,101032.73
2022-09-20T03:53:30.376Z,101039.71
2022-09-20T03:56:16.694Z,101034.59
2022-09-20T03:59:09.752Z,101037.33
2022-09-20T04:01:58.478Z,101034.48
2022-09-20T04:04:34.083Z,101040.22
2022-09-20T04:07:18.829Z,101039.08
2022-09-20T04:10:11.277Z,101042.16
2022-09-20T04:12:50.318Z,101043.00
2022-09-20T04:15:30.967Z,101043.10
2022-09-20T04:18:06.995Z,101039.85
2022-09-20T04:20:47.167Z,101037.67
2022-09-20T04:23:31.839Z,101038.96
2022-09-20T04:26:04.229Z,101042.02
2022-09-20T04:28:42.536Z,101046.51
2022-09-20T04:31:25.505Z,101045.68
2022-09-20T04:33:58.383Z,101049.80
2022-09-20T04:36:57.814Z,101058.48
2022-09-20T04:39:42.363Z,101055.94
2022-09-20T04:42:49.930Z,101058.28
2022-09-20T04:46:11.641Z,101058.19
2022-09-20T04:49:08.221Z,101061.73
2022-09-20T04:52:16.589Z,101069.14
2022-09-20T04:55:06.363Z,101070.95
2022-09-20T04:57:57.862Z,101069.08
2022-09-20T05:00:39.779Z,101069.64
2022-09-20T05:03:59.949Z,101071.82
2022-09-20T05:06:58.373Z,101072.23
2022-09-20T05:09:55.259Z,101077.73
2022-09-20T05:12:53.377Z,101081.08
2022-09-20T05:15:47.699Z,101082.85
2022-09-20T05:18:52.441Z,101084.45
2022-09-20T05:22:01.600Z,101090.39
2022-09-20T05:25:01.974Z,101093.52
2022-09-20T05:27:43.184Z,101097.37
2022-09-20T05:30:23.920Z,101091.74
2022-09-20T05:33:06.322Z,101095.75
2022-09-20T05:35:41.500Z,101094.70
2022-09-20T05:38:24.156Z,101097.33
2022-09-20T05:41:10.637Z,101096.99
2022-09-20T05:43:51.585Z,101102.92
2022-09-20T05:46:37.772Z,101107.46
2022-09-20T05:49:20.105Z,101106.92
2022-09-20T05:52:24.796Z,101106.03
2022-09-20T05:55:17.404Z,101108.48
2022-09-20T05:58:04.613Z,101107.89
2022-09-20T06:00:40.983Z,101112.19
2022-09-20T06:03:20.000Z,101116.52
2022-09-20T06:06:00.019Z,101119.41
2022-09-20T06:09:00.083Z,101117.20
2022-09-20T06:12:03.304Z,101124.60
2022-09-20T06:14:46.681Z,101127.56
2022-09-20T06:17:27.979Z,101127.34
2022-09-20T06:20:16.266Z,101123.06
2022-09-20T06:22:50.112Z,101122.58
2022-09-20T06:25:24.688Z,101125.08
2022-09-20T06:27:59.871Z,101125.14
2022-09-20T06:30:35.407Z,101127.10
2022-09-20T06:33:17.839Z,101127.87
2022-09-20T06:35:55.782Z,101125.14
2022-09-20T06:39:06.090Z,101130.11
2022-09-20T06:41:37.997Z,101128.00
2022-09-20T06:44:08.563Z,101129.27
2022-09-20T06:46:41.240Z,101130.48
2022-09-20T06:49:11.984Z,101130.11
2022-09-20T06:51:43.441Z,101128.15
2022-09-20T06:54:17.770Z,101127.92
2022-09-20T06:56:51.241Z,101126.95
2022-09-20T06:59:21.821Z,101124.30
2022-09-20T07:01:53.537Z,101124.16
2022-09-20T07:04:26.990Z,101121.94
2022-09-20T07:07:06.190Z,101123.67
2022-09-20T07:09:40.064Z,101123.92
2022-09-20T07:12:12.455Z,101123.15
2022-09-20T07:14:44.388Z,101125.70
2022-09-20T07:17:14.893Z,101127.56
2022-09-20T07:19:45.299Z,101130.49
2022-09-20T07:22:15.735Z,101133.89
2022-09-20T07:24:46.418Z,101136.27
2022-09-20T07:27:16.953Z,101132.92
2022-09-20T07:29:47.607Z,101133.41
2022-09-20T07:32:18.097Z,101134.98
2022-09-20T07:34:51.615Z,101135.31
2022-09-20T07:37:28.448Z,101135.58
2022-09-20T07:40:02.266Z,101137.95
2022-09-20T07:42:33.997Z,101132.02
2022-09-20T07:45:04.725Z,101139.09
2022-09-20T07:47:36.273Z,101143.34
2022-09-20T07:50:09.820Z,101146.20
2022-09-20T07:52:40.227Z,101140.81
2022-09-20T07:55:11.474Z,101143.20
2022-09-20T07:57:42.801Z,101144.13
2022-09-20T08:00:12.457Z,101147.98
2022-09-20T08:02:42.871Z,101148.96
2022-09-20T08:05:13.498Z,101147.48
2022-09-20T08:07:43.944Z,101148.16
2022-09-20T08:10:14.570Z,101153.02
2022-09-20T08:15:35.928Z,101155.08
2022-09-20T08:18:08.429Z,101155.50
2022-09-20T08:20:40.558Z,101156.19
2022-09-20T08:23:23.424Z,101159.83
2022-09-20T08:25:57.798Z,101164.69
2022-09-20T08:28:28.325Z,101165.61
2022-09-20T08:31:04.631Z,101170.32
2022-09-20T08:33:36.516Z,101166.87
2022-09-20T08:36:07.699Z,101172.04
2022-09-20T08:41:32.486Z,101171.17
2022-09-20T08:44:07.262Z,101165.88
2022-09-20T08:46:42.652Z,101163.41
2022-09-20T08:49:20.471Z,101167.11
2022-09-20T08:51:51.858Z,101166.35
2022-09-20T08:54:24.223Z,101167.36
2022-09-20T08:56:55.792Z,101167.34
2022-09-20T08:59:26.324Z,101166.39
2022-09-20T09:01:56.786Z,101167.73
2022-09-20T09:04:35.042Z,101170.05
2022-09-20T09:07:08.266Z,101158.89
2022-09-20T09:09:41.828Z,101156.83
2022-09-20T09:12:22.508Z,101153.66
2022-09-20T09:14:55.911Z,101156.20
2022-09-20T09:17:29.012Z,101156.90
2022-09-20T09:20:02.063Z,101155.48
2022-09-20T09:22:42.205Z,101157.92
2022-09-20T09:25:25.209Z,101155.88
2022-09-20T09:27:59.601Z,101154.04
2022-09-20T09:30:33.668Z,101151.48
2022-09-20T09:33:28.931Z,101149.87
2022-09-20T09:36:06.336Z,101151.88
2022-09-20T09:38:40.118Z,101154.71
2022-09-20T09:41:26.471Z,101152.65
2022-09-20T09:44:09.984Z,101152.24
2022-09-20T09:46:41.688Z,101149.64
2022-09-20T09:49:16.702Z,101148.55
2022-09-20T09:52:03.460Z,101147.91
2022-09-20T09:54:37.302Z,101146.48
2022-09-20T09:57:17.348Z,101148.05
2022-09-20T10:00:21.614Z,101141.27
2022-09-20T10:03:14.263Z,101137.35
2022-09-20T10:05:57.946Z,101135.86
2022-09-20T10:08:41.050Z,101139.09
2022-09-20T10:11:22.275Z,101135.13
2022-09-20T10:14:03.444Z,101131.39
2022-09-20T10:16:47.847Z,101131.77
2022-09-20T10:19:26.761Z,101133.14
2022-09-20T10:22:19.557Z,101128.72
2022-09-20T10:24:57.870Z,101125.84
2022-09-20T10:27:43.711Z,101121.29
2022-09-20T10:30:23.657Z,101117.46
2022-09-20T10:33:05.380Z,101115.23
2022-09-20T10:36:01.170Z,101115.62
2022-09-20T10:38:37.002Z,101115.21
2022-09-20T10:41:39.589Z,101116.26
2022-09-20T10:44:26.078Z,101116.25
2022-09-20T10:47:06.895Z,101121.77
2022-09-20T10:49:50.735Z,101116.31
2022-09-20T10:52:43.386Z,101109.70
2022-09-20T10:55:45.273Z,101115.20
2022-09-20T10:58:45.371Z,101114.29
2022-09-20T11:01:22.546Z,101116.04
2022-09-20T11:04:20.249Z,101111.70
2022-09-20T11:07:03.836Z,101111.54
2022-09-20T11:09:39.894Z,101112.42
2022-09-20T11:12:22.638Z,101121.83
2022-09-20T11:14:58.935Z,101121.70
2022-09-20T11:17:36.420Z,101116.80
2022-09-20T11:20:16.756Z,101121.07
2022-09-20T11:22:52.572Z,101120.27
2022-09-20T11:25:30.419Z,101125.36
2022-09-20T11:28:06.321Z,101120.84
2022-09-20T11:30:43.415Z,101124.64
2022-09-20T11:33:23.871Z,101131.67
2022-09-20T11:35:59.072Z,101129.58
2022-09-20T11:38:34.133Z,101129.48
2022-09-20T11:41:10.271Z,101127.34
2022-09-20T11:43:42.752Z,101123.96
2022-09-20T11:46:20.682Z,101119.60
2022-09-20T11:48:56.661Z,101112.95
2022-09-20T11:51:49.523Z,101110.66
2022-09-20T11:54:44.372Z,101107.40
2022-09-20T11:57:17.742Z,101113.13
2022-09-20T11:59:56.216Z,101115.69
2022-09-20T12:02:35.545Z,101120.55
2022-09-20T12:05:23.973Z,101120.83
2022-09-20T12:07:58.219Z,101122.70
2022-09-20T12:10:33.722Z,101128.20
2022-09-20T12:13:06.853Z,101125.38
2022-09-20T12:15:40.007Z,101124.77
2022-09-20T12:18:47.640Z,101121.39
2022-09-20T12:21:20.865Z,101119.86
2022-09-20T12:24:20.970Z,101120.84
2022-09-20T12:26:55.855Z,101116.98
2022-09-20T12:30:15.095Z,101113.35
2022-09-20T12:32:54.044Z,101112.80
2022-09-20T12:35:59.326Z,101117.05
2022-09-20T12:38:49.755Z,101108.39
2022-09-20T12:41:28.321Z,101104.48
2022-09-20T12:44:05.345Z,101102.75
2022-09-20T12:46:44.096Z,101098.38
2022-09-20T12:49:52.172Z,101098.75
2022-09-20T12:52:57.014Z,101094.45
2022-09-20T12:55:47.149Z,101091.70
2022-09-20T12:58:32.977Z,101088.80
2022-09-20T13:01:30.283Z,101084.69
2022-09-20T13:04:37.077Z,101083.86
2022-09-20T13:07:33.385Z,101088.02
2022-09-20T13:10:10.290Z,101088.20
2022-09-20T13:12:43.298Z,101085.40
2022-09-20T13:15:21.651Z,101083.10
2022-09-20T13:17:55.084Z,101085.29
2022-09-20T13:20:31.499Z,101090.85
2022-09-20T13:23:03.444Z,101089.97
2022-09-20T13:25:40.079Z,101090.33
2022-09-20T13:28:21.281Z,101085.29
2022-09-20T13:30:51.913Z,101085.82
2022-09-20T13:33:26.384Z,101083.96
2022-09-20T13:35:59.008Z,101081.66
2022-09-20T13:38:32.541Z,101082.71
2022-09-20T13:41:09.100Z,101082.73
2022-09-20T13:43:43.620Z,101084.34
2022-09-20T13:46:17.026Z,101084.87
2022-09-20T13:48:49.447Z,101082.58
2022-09-20T13:51:24.884Z,101081.92
2022-09-20T13:54:15.497Z,101085.63
2022-09-20T13:56:46.127Z,101083.55
2022-09-20T13:59:19.573Z,101084.91
2022-09-20T14:01:55.347Z,101087.95
2022-09-20T14:04:28.962Z,101089.39
2022-09-20T14:07:01.471Z,101092.39
2022-09-20T14:09:35.372Z,101092.91
2022-09-20T14:12:08.133Z,101092.69
2022-09-20T14:14:38.946Z,101095.09
2022-09-20T14:17:10.597Z,101100.70
2022-09-20T14:19:46.135Z,101103.84
2022-09-20T14:22:23.754Z,101099.82
2022-09-20T14:25:02.622Z,101096.20
2022-09-20T14:27:33.220Z,101094.45
2022-09-20T14:30:04.530Z,101094.44
2022-09-20T14:32:38.614Z,101093.46
2022-09-20T14:35:15.975Z,101092.71
2022-09-20T14:37:48.935Z,101088.90
2022-09-20T14:40:29.089Z,101086.81
2022-09-20T14:43:02.105Z,101089.10
2022-09-20T14:45:35.529Z,101079.92
2022-09-20T14:48:11.120Z,101074.04
2022-09-20T14:50:43.561Z,101072.80
2022-09-20T14:53:28.121Z,101065.77
2022-09-20T14:56:01.265Z,101066.23
2022-09-20T14:58:31.662Z,101066.02
2022-09-20T15:01:07.862Z,101067.05
2022-09-20T15:03:41.544Z,101065.31
2022-09-20T15:06:14.762Z,101067.98
2022-09-20T15:08:46.728Z,101066.77
2022-09-20T15:11:18.591Z,101067.77
2022-09-20T15:13:49.171Z,101065.58
2022-09-20T15:16:21.945Z,101064.26
2022-09-20T15:18:52.569Z,101069.38
2022-09-20T15:21:23.695Z,101066.52
2022-09-20T15:23:54.269Z,101066.09
2022-09-20T15:26:24.828Z,101067.77
2022-09-20T15:28:55.323Z,101067.40
2022-09-20T15:31:25.856Z,101067.08
2022-09-20T15:33:56.313Z,101068.50
2022-09-20T15:36:31.969Z,101069.28
2022-09-20T15:39:02.767Z,101069.77
2022-09-20T15:41:33.613Z,101069.98
2022-09-20T15:44:04.482Z,101067.86
2022-09-20T15:46:35.571Z,101070.00
2022-09-20T15:49:09.079Z,101078.08
2022-09-20T15:51:40.051Z,101078.73
2022-09-20T15:54:13.900Z,101077.70
2022-09-20T15:56:44.270Z,101078.27
2022-09-20T15:59:23.176Z,101075.88
2022-09-20T16:01:53.693Z,101082.61
2022-09-20T16:04:27.405Z,101078.88
2022-09-20T16:06:58.100Z,101075.61
2022-09-20T16:09:28.615Z,101077.17
2022-09-20T16:12:00.263Z,101077.42
2022-09-20T16:14:30.732Z,101076.98
2022-09-20T16:17:02.938Z,101083.52
2022-09-20T16:19:34.053Z,101087.04
2022-09-20T16:22:04.517Z,101089.59
2022-09-20T16:24:36.411Z,101094.13
2022-09-20T16:27:49.774Z,101091.37
2022-09-20T16:30:20.885Z,101091.66
2022-09-20T16:32:53.110Z,101090.52
2022-09-20T16:35:23.644Z,101093.23
2022-09-20T16:37:54.395Z,101091.70
2022-09-20T16:40:25.020Z,101092.27
2022-09-20T16:43:27.507Z,101094.58
2022-09-20T16:46:05.877Z,101099.10
2022-09-20T16:48:36.577Z,101099.13
2022-09-20T16:51:08.105Z,101097.22
2022-09-20T16:53:38.520Z,101099.63
2022-09-20T16:56:18.480Z,101098.27
2022-09-20T16:58:49.933Z,101101.31
2022-09-20T17:01:21.199Z,101100.98
2022-09-20T17:03:50.367Z,101103.03
2022-09-20T17:06:20.775Z,101104.02
2022-09-20T17:08:58.798Z,101108.89
2022-09-20T17:11:32.883Z,101113.08
2022-09-20T17:14:03.839Z,101113.60
2022-09-20T17:16:36.238Z,101117.83
2022-09-20T17:19:15.994Z,101116.30
2022-09-20T17:21:50.509Z,101118.25
2022-09-20T17:24:23.121Z,101124.11
2022-09-20T17:26:53.911Z,101127.06
2022-09-20T17:29:24.354Z,101133.05
2022-09-20T17:31:59.416Z,101134.55
2022-09-20T17:34:31.655Z,101138.41
2022-09-20T17:37:03.480Z,101142.77
2022-09-20T17:39:34.013Z,101146.75
2022-09-20T17:42:04.549Z,101147.88
2022-09-20T17:44:37.475Z,101152.44
2022-09-20T17:47:08.053Z,101155.67
2022-09-20T17:49:40.576Z,101157.54
2022-09-20T17:52:11.159Z,101165.30
2022-09-20T17:54:42.193Z,101161.02
2022-09-20T17:57:12.726Z,101166.58
2022-09-20T17:59:43.153Z,101165.20
2022-09-20T18:02:13.529Z,101167.16
2022-09-20T18:04:44.075Z,101174.02
2022-09-20T18:07:15.222Z,101173.84
2022-09-20T18:09:45.552Z,101173.48
2022-09-20T18:12:19.808Z,101177.74
2022-09-20T18:14:53.920Z,101182.55
2022-09-20T18:17:24.236Z,101182.67
2022-09-20T18:19:54.848Z,101183.36
2022-09-20T18:22:25.398Z,101183.17
2022-09-20T18:24:56.116Z,101187.02
2022-09-20T18:27:26.529Z,101191.71
2022-09-20T18:29:56.940Z,101199.23
2022-09-20T18:32:30.599Z,101198.88
2022-09-20T18:35:01.926Z,101205.56
2022-09-20T18:37:32.354Z,101208.09
2022-09-20T18:40:03.100Z,101207.34
2022-09-20T18:42:33.638Z,101209.91
2022-09-20T18:45:04.026Z,101210.56
2022-09-20T18:47:34.417Z,101220.15
2022-09-20T18:50:05.683Z,101227.06
2022-09-20T18:52:38.722Z,101224.71
2022-09-20T18:55:10.550Z,101230.00
2022-09-20T18:57:41.536Z,101231.54
2022-09-20T19:00:14.460Z,101230.02
2022-09-20T19:03:08.051Z,101235.39
2022-09-20T19:05:44.515Z,101238.46
2022-09-20T19:08:26.394Z,101242.02
2022-09-20T19:11:03.251Z,101246.31
2022-09-20T19:13:45.281Z,101245.80
2022-09-20T19:16:20.965Z,101248.79
2022-09-20T19:19:22.640Z,101252.48
2022-09-20T19:22:01.011Z,101258.13
2022-09-20T19:24:43.440Z,101265.14
2022-09-20T19:27:15.914Z,101267.73
2022-09-20T19:29:47.432Z,101269.25
2022-09-20T19:32:21.053Z,101271.13
2022-09-20T19:34:55.892Z,101276.27
2022-09-20T19:37:36.701Z,101282.00
2022-09-20T19:40:18.013Z,101282.60
2022-09-20T19:43:05.043Z,101283.37
2022-09-20T19:45:46.943Z,101281.98
2022-09-20T19:48:23.883Z,101287.48
2022-09-20T19:50:56.654Z,101286.63
2022-09-20T19:53:28.040Z,101291.77
2022-09-20T19:56:00.628Z,101289.33
2022-09-20T19:58:31.922Z,101293.36
2022-09-20T20:01:03.257Z,101290.77
2022-09-20T20:03:32.896Z,101289.90
2022-09-20T20:06:10.481Z,101294.81
2022-09-20T20:08:50.644Z,101294.45
2022-09-20T20:11:33.574Z,101299.88
2022-09-20T20:14:19.893Z,101305.48
2022-09-20T20:17:02.585Z,101304.22
2022-09-20T20:19:55.718Z,101303.62
2022-09-20T20:22:48.004Z,101306.75
2022-09-20T20:25:26.863Z,101305.84
2022-09-20T20:27:57.576Z,101307.17
2022-09-20T20:30:27.997Z,101301.89
2022-09-20T20:32:59.022Z,101302.55
2022-09-20T20:35:29.737Z,101298.98
2022-09-20T20:38:00.231Z,101300.14
2022-09-20T20:40:32.863Z,101297.67
2022-09-20T20:43:03.351Z,101297.26
2022-09-20T20:45:33.809Z,101302.11
2022-09-20T20:48:04.576Z,101307.70
2022-09-20T20:50:35.418Z,101305.88
2022-09-20T20:53:06.746Z,101308.30
2022-09-20T20:55:37.220Z,101307.02
2022-09-20T20:58:08.598Z,101311.17
2022-09-20T21:00:39.141Z,101311.16
2022-09-20T21:03:10.953Z,101314.31
2022-09-20T21:05:41.359Z,101320.82
2022-09-20T21:08:12.009Z,101319.27
2022-09-20T21:10:42.400Z,101317.99
2022-09-20T21:13:12.768Z,101315.03
2022-09-20T21:15:43.121Z,101313.95
2022-09-20T21:18:13.568Z,101311.64
2022-09-20T21:20:43.995Z,101318.53
2022-09-20T21:23:14.306Z,101316.33
2022-09-20T21:25:45.095Z,101323.08
2022-09-20T21:28:15.513Z,101326.16
2022-09-20T21:30:45.879Z,101328.36
2022-09-20T21:33:16.302Z,101331.79
2022-09-20T21:35:46.681Z,101334.31
2022-09-20T21:38:17.109Z,101335.63
2022-09-20T21:40:47.498Z,101335.37
2022-09-20T21:43:17.825Z,101333.64
2022-09-20T21:45:51.096Z,101330.56
2022-09-20T21:48:21.689Z,101333.08
2022-09-20T21:50:52.034Z,101332.77
2022-09-20T21:53:22.523Z,101334.08
2022-09-20T21:55:58.941Z,101329.41
2022-09-20T21:58:30.256Z,101324.75
2022-09-20T22:01:03.375Z,101325.39
2022-09-20T22:03:36.373Z,101327.07
2022-09-20T22:06:13.300Z,101327.35
2022-09-20T22:08:47.416Z,101329.91
2022-09-20T22:11:18.948Z,101337.37
2022-09-20T22:13:51.372Z,101332.18
2022-09-20T22:16:23.849Z,101335.25
2022-09-20T22:18:54.598Z,101336.20
2022-09-20T22:21:27.350Z,101340.45
2022-09-20T22:24:00.883Z,101338.17
2022-09-20T22:26:33.698Z,101339.97
2022-09-20T22:29:04.383Z,101338.75
2022-09-20T22:31:37.130Z,101334.54
2022-09-20T22:34:08.636Z,101334.88
2022-09-20T22:36:38.422Z,101337.48
2022-09-20T22:39:12.206Z,101333.77
2022-09-20T22:41:44.592Z,101335.52
2022-09-20T22:44:14.947Z,101335.34
2022-09-20T22:46:45.364Z,101339.02
2022-09-20T22:49:15.717Z,101339.32
2022-09-20T22:51:46.235Z,101340.67
2022-09-20T22:54:16.716Z,101337.15
2022-09-20T22:56:48.581Z,101342.95
2022-09-20T22:59:19.430Z,101338.88
2022-09-20T23:01:50.270Z,101343.06
2022-09-20T23:04:23.434Z,101338.50
2022-09-20T23:06:55.564Z,101331.80
2022-09-20T23:09:28.280Z,101339.73
2022-09-20T23:11:58.862Z,101337.67
2022-09-20T23:14:29.241Z,101337.00
2022-09-20T23:17:31.368Z,101336.36
2022-09-20T23:20:02.168Z,101336.59
2022-09-20T23:22:32.551Z,101334.92
2022-09-20T23:25:03.393Z,101337.11
2022-09-20T23:27:33.752Z,101333.23
2022-09-20T23:30:05.217Z,101330.93
2022-09-20T23:32:35.633Z,101330.02
2022-09-20T23:35:06.886Z,101327.00
2022-09-20T23:37:37.186Z,101328.89
2022-09-20T23:40:09.619Z,101334.80
2022-09-20T23:42:40.129Z,101334.73
2022-09-20T23:45:12.823Z,101334.34
2022-09-20T23:47:43.159Z,101336.55
2022-09-20T23:50:13.521Z,101337.21
2022-09-20T23:52:43.963Z,101340.28
2022-09-20T23:55:14.506Z,101341.23
2022-09-20T23:57:44.824Z,101341.16
